sensor_id;sensor_type;location;lat;lon;timestamp;pressure;altitude;pressure_sealevel;temperature;humidity
67931;BME280;63902;52.000;5.954;2023-03-23T03:17:36;99701.47;;;10.22;100.00
67931;BME280;63902;52.000;5.954;2023-03-23T03:18:44;99704.97;;;10.23;100.00
67931;BME280;63902;52.000;5.954;2023-03-23T03:21:00;99707.97;;;10.33;100.00
67931;BME280;63902;52.000;5.954;2023-03-23T03:22:03;99681.38;;;10.18;100.00
67931;BME280;63902;52.000;5.954;2023-03-23T03:23:05;99705.31;;;10.33;100.00
67931;BME280;63902;52.000;5.954;2023-03-23T03:24:06;99710.38;;;10.37;100.00
67931;BME280;63902;52.000;5.954;2023-03-23T05:11:34;99706.13;;;10.79;100.00
67931;BME280;63902;52.000;5.954;2023-03-23T05:37:10;99731.50;;;10.83;99.33
67931;BME280;63902;52.000;5.954;2023-03-23T05:41:41;99742.34;;;10.94;98.34
67931;BME280;63902;52.000;5.954;2023-03-23T05:42:42;99737.22;;;10.91;97.88
67931;BME280;63902;52.000;5.954;2023-03-23T05:43:42;99743.09;;;10.96;98.52
67931;BME280;63902;52.000;5.954;2023-03-23T05:44:43;99731.06;;;10.91;98.32
67931;BME280;63902;52.000;5.954;2023-03-23T05:45:43;99737.03;;;10.94;98.30
67931;BME280;63902;52.000;5.954;2023-03-23T05:46:43;99735.22;;;10.95;98.71
67931;BME280;63902;52.000;5.954;2023-03-23T05:47:44;99740.84;;;10.90;99.05
67931;BME280;63902;52.000;5.954;2023-03-23T05:48:44;99738.44;;;10.86;99.65
67931;BME280;63902;52.000;5.954;2023-03-23T05:49:45;99741.00;;;10.87;100.00
67931;BME280;63902;52.000;5.954;2023-03-23T05:50:47;99744.59;;;10.86;100.00
67931;BME280;63902;52.000;5.954;2023-03-23T05:51:47;99746.50;;;10.84;100.00
67931;BME280;63902;52.000;5.954;2023-03-23T05:52:49;99735.97;;;10.83;100.00
67931;BME280;63902;52.000;5.954;2023-03-23T05:53:50;99730.09;;;10.78;100.00
67931;BME280;63902;52.000;5.954;2023-03-23T05:54:50;99715.16;;;10.61;100.00
67931;BME280;63902;52.000;5.954;2023-03-23T05:55:51;99742.31;;;10.80;99.55
67931;BME280;63902;52.000;5.954;2023-03-23T05:56:54;99748.28;;;10.84;99.62
67931;BME280;63902;52.000;5.954;2023-03-23T05:57:54;99744.59;;;10.86;99.93
67931;BME280;63902;52.000;5.954;2023-03-23T05:58:54;99741.94;;;10.86;100.00
67931;BME280;63902;52.000;5.954;2023-03-23T05:59:55;99745.56;;;10.85;100.00
67931;BME280;63902;52.000;5.954;2023-03-23T06:00:55;99738.81;;;10.80;100.00
67931;BME280;63902;52.000;5.954;2023-03-23T06:01:56;99747.34;;;10.85;99.95
67931;BME280;63902;52.000;5.954;2023-03-23T06:02:56;99749.34;;;10.81;100.00
67931;BME280;63902;52.000;5.954;2023-03-23T06:03:57;99752.56;;;10.86;99.31
67931;BME280;63902;52.000;5.954;2023-03-23T06:04:58;99739.47;;;10.83;98.34
67931;BME280;63902;52.000;5.954;2023-03-23T06:05:58;99754.94;;;10.91;98.07
67931;BME280;63902;52.000;5.954;2023-03-23T06:06:59;99741.75;;;10.89;98.42
67931;BME280;63902;52.000;5.954;2023-03-23T06:08:00;99754.16;;;10.89;99.36
67931;BME280;63902;52.000;5.954;2023-03-23T06:09:01;99748.88;;;10.89;97.56
67931;BME280;63902;52.000;5.954;2023-03-23T06:10:02;99730.00;;;10.79;98.39
67931;BME280;63902;52.000;5.954;2023-03-23T06:11:03;99750.22;;;10.96;98.83
67931;BME280;63902;52.000;5.954;2023-03-23T06:12:03;99763.38;;;10.97;99.35
67931;BME280;63902;52.000;5.954;2023-03-23T06:13:04;99761.94;;;10.92;99.27
67931;BME280;63902;52.000;5.954;2023-03-23T06:14:05;99741.38;;;10.81;99.33
67931;BME280;63902;52.000;5.954;2023-03-23T06:15:07;99744.19;;;10.78;99.52
67931;BME280;63902;52.000;5.954;2023-03-23T06:16:08;99770.78;;;10.92;99.87
67931;BME280;63902;52.000;5.954;2023-03-23T06:17:08;99768.13;;;10.92;100.00
67931;BME280;63902;52.000;5.954;2023-03-23T06:18:09;99764.53;;;10.93;99.32
67931;BME280;63902;52.000;5.954;2023-03-23T06:19:09;99768.88;;;10.94;99.92
67931;BME280;63902;52.000;5.954;2023-03-23T06:20:11;99754.34;;;10.86;100.00
67931;BME280;63902;52.000;5.954;2023-03-23T06:21:12;99763.84;;;10.90;100.00
67931;BME280;63902;52.000;5.954;2023-03-23T06:22:13;99758.75;;;10.87;99.52
67931;BME280;63902;52.000;5.954;2023-03-23T06:23:15;99765.63;;;10.89;99.99
67931;BME280;63902;52.000;5.954;2023-03-23T06:24:15;99772.75;;;10.89;100.00
67931;BME280;63902;52.000;5.954;2023-03-23T06:25:16;99772.38;;;10.95;99.24
67931;BME280;63902;52.000;5.954;2023-03-23T06:26:18;99781.03;;;10.98;98.95
67931;BME280;63902;52.000;5.954;2023-03-23T06:27:20;99785.38;;;11.00;99.27
67931;BME280;63902;52.000;5.954;2023-03-23T06:28:20;99760.25;;;10.91;99.26
67931;BME280;63902;52.000;5.954;2023-03-23T06:29:21;99759.22;;;10.93;99.37
67931;BME280;63902;52.000;5.954;2023-03-23T06:30:21;99769.56;;;10.98;99.77
67931;BME280;63902;52.000;5.954;2023-03-23T06:31:22;99774.69;;;11.01;99.72
67931;BME280;63902;52.000;5.954;2023-03-23T06:32:23;99779.03;;;11.02;100.00
67931;BME280;63902;52.000;5.954;2023-03-23T06:33:25;99769.38;;;11.01;98.95
67931;BME280;63902;52.000;5.954;2023-03-23T06:34:25;99768.69;;;10.97;98.57
67931;BME280;63902;52.000;5.954;2023-03-23T06:35:26;99768.88;;;10.94;99.52
67931;BME280;63902;52.000;5.954;2023-03-23T06:36:26;99785.97;;;11.05;98.93
67931;BME280;63902;52.000;5.954;2023-03-23T06:37:27;99785.97;;;11.05;99.09
67931;BME280;63902;52.000;5.954;2023-03-23T06:38:28;99779.88;;;11.03;98.91
67931;BME280;63902;52.000;5.954;2023-03-23T06:39:29;99774.75;;;11.00;99.65
67931;BME280;63902;52.000;5.954;2023-03-23T06:40:29;99768.88;;;10.94;99.66
67931;BME280;63902;52.000;5.954;2023-03-23T06:41:30;99780.84;;;11.02;99.80
67931;BME280;63902;52.000;5.954;2023-03-23T06:42:31;99752.16;;;10.78;99.66
67931;BME280;63902;52.000;5.954;2023-03-23T06:44:41;99788.13;;;10.98;99.51
67931;BME280;63902;52.000;5.954;2023-03-23T06:45:42;99770.00;;;10.90;99.04
67931;BME280;63902;52.000;5.954;2023-03-23T06:46:42;99783.56;;;11.00;99.26
67931;BME280;63902;52.000;5.954;2023-03-23T06:47:43;99787.00;;;11.02;99.12
67931;BME280;63902;52.000;5.954;2023-03-23T06:48:45;99782.53;;;11.03;99.36
67931;BME280;63902;52.000;5.954;2023-03-23T06:49:46;99785.19;;;11.03;98.70
67931;BME280;63902;52.000;5.954;2023-03-23T06:50:47;99787.00;;;11.02;98.73
67931;BME280;63902;52.000;5.954;2023-03-23T06:51:48;99791.28;;;11.05;99.13
67931;BME280;63902;52.000;5.954;2023-03-23T06:52:50;99795.81;;;11.03;98.44
67931;BME280;63902;52.000;5.954;2023-03-23T06:53:52;99798.28;;;11.06;98.81
67931;BME280;63902;52.000;5.954;2023-03-23T06:54:53;99783.69;;;10.98;99.29
67931;BME280;63902;52.000;5.954;2023-03-23T06:55:53;99802.06;;;11.02;99.07
67931;BME280;63902;52.000;5.954;2023-03-23T06:56:54;99795.72;;;11.04;98.81
67931;BME280;63902;52.000;5.954;2023-03-23T06:57:54;99799.50;;;11.00;99.26
67931;BME280;63902;52.000;5.954;2023-03-23T06:58:55;99795.81;;;11.03;99.37
67931;BME280;63902;52.000;5.954;2023-03-23T06:59:55;99792.50;;;10.99;98.89
67931;BME280;63902;52.000;5.954;2023-03-23T07:00:56;99801.22;;;11.01;98.68
67931;BME280;63902;52.000;5.954;2023-03-23T07:01:57;99800.34;;;11.01;99.13
67931;BME280;63902;52.000;5.954;2023-03-23T07:02:57;99806.53;;;11.01;99.01
67931;BME280;63902;52.000;5.954;2023-03-23T07:03:58;99810.88;;;11.02;98.79
67931;BME280;63902;52.000;5.954;2023-03-23T07:04:58;99803.88;;;11.01;98.77
67931;BME280;63902;52.000;5.954;2023-03-23T07:05:59;99796.09;;;10.98;98.74
67931;BME280;63902;52.000;5.954;2023-03-23T07:06:59;99804.72;;;11.02;99.04
67931;BME280;63902;52.000;5.954;2023-03-23T07:08:00;99788.47;;;10.92;98.13
67931;BME280;63902;52.000;5.954;2023-03-23T07:09:02;99804.91;;;10.98;99.05
67931;BME280;63902;52.000;5.954;2023-03-23T07:10:03;99800.34;;;11.01;99.54
67931;BME280;63902;52.000;5.954;2023-03-23T07:11:04;99807.56;;;10.98;99.43
67931;BME280;63902;52.000;5.954;2023-03-23T07:12:05;99818.00;;;11.02;99.56
67931;BME280;63902;52.000;5.954;2023-03-23T07:13:05;99812.56;;;11.03;99.53
67931;BME280;63902;52.000;5.954;2023-03-23T07:14:06;99818.00;;;11.02;98.38
67931;BME280;63902;52.000;5.954;2023-03-23T07:15:07;99818.75;;;11.04;98.83
67931;BME280;63902;52.000;5.954;2023-03-23T07:16:08;99816.84;;;11.06;98.70
67931;BME280;63902;52.000;5.954;2023-03-23T07:17:09;99817.72;;;11.06;98.80
67931;BME280;63902;52.000;5.954;2023-03-23T07:18:09;99812.50;;;11.05;98.86
67931;BME280;63902;52.000;5.954;2023-03-23T07:19:10;99815.91;;;11.07;99.37
67931;BME280;63902;52.000;5.954;2023-03-23T07:20:11;99817.53;;;11.09;98.84
67931;BME280;63902;52.000;5.954;2023-03-23T07:21:12;99801.97;;;11.03;99.30
67931;BME280;63902;52.000;5.954;2023-03-23T07:22:12;99816.78;;;11.07;99.10
67931;BME280;63902;52.000;5.954;2023-03-23T07:23:13;99829.94;;;11.09;99.41
67931;BME280;63902;52.000;5.954;2023-03-23T07:24:15;99818.41;;;11.10;99.35
67931;BME280;63902;52.000;5.954;2023-03-23T07:25:15;99835.09;;;11.12;99.32
67931;BME280;63902;52.000;5.954;2023-03-23T07:26:16;99822.75;;;11.11;98.83
67931;BME280;63902;52.000;5.954;2023-03-23T07:27:16;99830.53;;;11.14;97.93
67931;BME280;63902;52.000;5.954;2023-03-23T07:28:17;99822.66;;;11.12;98.37
67931;BME280;63902;52.000;5.954;2023-03-23T07:29:18;99817.06;;;11.17;97.30
67931;BME280;63902;52.000;5.954;2023-03-23T07:30:18;99832.13;;;11.16;97.81
67931;BME280;63902;52.000;5.954;2023-03-23T07:31:19;99833.00;;;11.17;97.67
67931;BME280;63902;52.000;5.954;2023-03-23T07:32:19;99827.50;;;11.20;98.21
67931;BME280;63902;52.000;5.954;2023-03-23T07:33:20;99824.94;;;11.18;98.46
67931;BME280;63902;52.000;5.954;2023-03-23T07:34:20;99836.16;;;11.24;98.48
67931;BME280;63902;52.000;5.954;2023-03-23T07:35:21;99816.88;;;11.20;98.75
67931;BME280;63902;52.000;5.954;2023-03-23T07:36:21;99830.25;;;11.18;98.04
67931;BME280;63902;52.000;5.954;2023-03-23T07:37:22;99838.81;;;11.24;97.95
67931;BME280;63902;52.000;5.954;2023-03-23T07:38:23;99827.69;;;11.17;98.22
67931;BME280;63902;52.000;5.954;2023-03-23T07:39:25;99842.31;;;11.24;98.67
67931;BME280;63902;52.000;5.954;2023-03-23T07:40:25;99844.13;;;11.24;98.49
67931;BME280;63902;52.000;5.954;2023-03-23T07:41:26;99843.34;;;11.22;98.72
67931;BME280;63902;52.000;5.954;2023-03-23T07:42:34;99836.59;;;11.16;98.78
67931;BME280;63902;52.000;5.954;2023-03-23T07:43:35;99836.59;;;11.16;97.95
67931;BME280;63902;52.000;5.954;2023-03-23T07:44:36;99847.22;;;11.16;97.26
67931;BME280;63902;52.000;5.954;2023-03-23T07:45:36;99849.78;;;11.17;97.99
67931;BME280;63902;52.000;5.954;2023-03-23T07:46:37;99844.75;;;11.13;96.39
67931;BME280;63902;52.000;5.954;2023-03-23T07:47:37;99842.28;;;11.10;97.21
67931;BME280;63902;52.000;5.954;2023-03-23T07:48:38;99852.78;;;11.11;95.57
67931;BME280;63902;52.000;5.954;2023-03-23T07:49:39;99855.63;;;11.08;94.35
67931;BME280;63902;52.000;5.954;2023-03-23T07:50:39;99853.41;;;11.01;94.91
67931;BME280;63902;52.000;5.954;2023-03-23T07:51:40;99858.47;;;11.05;95.05
67931;BME280;63902;52.000;5.954;2023-03-23T07:52:40;99846.41;;;11.00;95.30
67931;BME280;63902;52.000;5.954;2023-03-23T07:53:41;99858.56;;;11.04;95.44
67931;BME280;63902;52.000;5.954;2023-03-23T07:54:43;99861.28;;;11.02;95.98
67931;BME280;63902;52.000;5.954;2023-03-23T07:55:43;99862.44;;;10.98;96.45
67931;BME280;63902;52.000;5.954;2023-03-23T07:56:44;99856.16;;;10.99;96.59
67931;BME280;63902;52.000;5.954;2023-03-23T07:57:45;99868.66;;;10.97;96.19
67931;BME280;63902;52.000;5.954;2023-03-23T07:58:46;99858.47;;;10.89;96.35
67931;BME280;63902;52.000;5.954;2023-03-23T07:59:47;99838.09;;;10.75;96.63
67931;BME280;63902;52.000;5.954;2023-03-23T08:00:48;99837.56;;;10.69;97.16
67931;BME280;63902;52.000;5.954;2023-03-23T08:01:49;99858.34;;;10.77;96.99
67931;BME280;63902;52.000;5.954;2023-03-23T08:02:51;99872.28;;;10.80;98.00
67931;BME280;63902;52.000;5.954;2023-03-23T08:03:52;99869.03;;;10.75;98.78
67931;BME280;63902;52.000;5.954;2023-03-23T08:04:53;99861.44;;;10.69;99.04
67931;BME280;63902;52.000;5.954;2023-03-23T08:05:57;99876.31;;;10.71;99.13
67931;BME280;63902;52.000;5.954;2023-03-23T08:06:57;99869.38;;;10.69;99.41
67931;BME280;63902;52.000;5.954;2023-03-23T08:07:58;99868.72;;;10.65;99.36
67931;BME280;63902;52.000;5.954;2023-03-23T08:08:58;99884.63;;;10.65;99.67
67931;BME280;63902;52.000;5.954;2023-03-23T08:10:00;99861.00;;;10.61;99.92
67931;BME280;63902;52.000;5.954;2023-03-23T08:11:01;99850.44;;;10.45;100.00
67931;BME280;63902;52.000;5.954;2023-03-23T08:12:01;99878.72;;;10.60;100.00
67931;BME280;63902;52.000;5.954;2023-03-23T08:13:02;99875.28;;;10.58;100.00
67931;BME280;63902;52.000;5.954;2023-03-23T08:14:03;99875.41;;;10.57;100.00
67931;BME280;63902;52.000;5.954;2023-03-23T08:15:04;99880.69;;;10.57;100.00
67931;BME280;63902;52.000;5.954;2023-03-23T08:16:05;99883.41;;;10.55;100.00
67931;BME280;63902;52.000;5.954;2023-03-23T08:17:06;99855.38;;;10.35;100.00
67931;BME280;63902;52.000;5.954;2023-03-23T08:18:07;99880.16;;;10.50;100.00
67931;BME280;63902;52.000;5.954;2023-03-23T08:19:07;99868.28;;;10.41;100.00
67931;BME280;63902;52.000;5.954;2023-03-23T08:20:09;99869.41;;;10.37;100.00
67931;BME280;63902;52.000;5.954;2023-03-23T08:21:10;99888.06;;;10.51;100.00
67931;BME280;63902;52.000;5.954;2023-03-23T08:22:10;99893.19;;;10.55;100.00
67931;BME280;63902;52.000;5.954;2023-03-23T08:23:11;99888.72;;;10.55;100.00
67931;BME280;63902;52.000;5.954;2023-03-23T08:24:11;99890.53;;;10.55;100.00
67931;BME280;63902;52.000;5.954;2023-03-23T08:25:13;99856.16;;;10.37;100.00
67931;BME280;63902;52.000;5.954;2023-03-23T08:26:14;99891.31;;;10.57;100.00
67931;BME280;63902;52.000;5.954;2023-03-23T08:27:15;99886.94;;;10.56;100.00
67931;BME280;63902;52.000;5.954;2023-03-23T08:28:15;99893.00;;;10.58;100.00
67931;BME280;63902;52.000;5.954;2023-03-23T08:29:16;99888.56;;;10.58;100.00
67931;BME280;63902;52.000;5.954;2023-03-23T08:30:18;99888.66;;;10.57;100.00
67931;BME280;63902;52.000;5.954;2023-03-23T08:31:19;99879.91;;;10.55;100.00
67931;BME280;63902;52.000;5.954;2023-03-23T08:32:19;99894.75;;;10.59;100.00
67931;BME280;63902;52.000;5.954;2023-03-23T08:33:20;99897.28;;;10.60;100.00
67931;BME280;63902;52.000;5.954;2023-03-23T08:34:20;99903.63;;;10.58;100.00
67931;BME280;63902;52.000;5.954;2023-03-23T08:35:21;99900.19;;;10.56;100.00
67931;BME280;63902;52.000;5.954;2023-03-23T08:36:21;99903.72;;;10.56;100.00
67931;BME280;63902;52.000;5.954;2023-03-23T08:37:22;99906.25;;;10.58;100.00
67931;BME280;63902;52.000;5.954;2023-03-23T08:38:23;99904.63;;;10.55;100.00
67931;BME280;63902;52.000;5.954;2023-03-23T08:39:23;99902.75;;;10.57;100.00
67931;BME280;63902;52.000;5.954;2023-03-23T08:40:25;99907.22;;;10.57;100.00
67931;BME280;63902;52.000;5.954;2023-03-23T08:41:26;99895.06;;;10.52;100.00
67931;BME280;63902;52.000;5.954;2023-03-23T08:42:27;99899.09;;;10.60;100.00
67931;BME280;63902;52.000;5.954;2023-03-23T08:43:28;99898.91;;;10.63;100.00
67931;BME280;63902;52.000;5.954;2023-03-23T08:44:28;99876.91;;;10.61;100.00
67931;BME280;63902;52.000;5.954;2023-03-23T08:45:29;99896.09;;;10.66;100.00
67931;BME280;63902;52.000;5.954;2023-03-23T08:46:29;99895.91;;;10.69;100.00
67931;BME280;63902;52.000;5.954;2023-03-23T08:47:30;99899.41;;;10.69;100.00
67931;BME280;63902;52.000;5.954;2023-03-23T08:48:30;99892.34;;;10.70;100.00
67931;BME280;63902;52.000;5.954;2023-03-23T08:49:31;99892.91;;;10.75;100.00
67931;BME280;63902;52.000;5.954;2023-03-23T08:50:32;99897.19;;;10.78;100.00
67931;BME280;63902;52.000;5.954;2023-03-23T08:51:33;99895.56;;;10.75;100.00
67931;BME280;63902;52.000;5.954;2023-03-23T08:52:34;99902.59;;;10.76;100.00
67931;BME280;63902;52.000;5.954;2023-03-23T08:53:34;99899.75;;;10.79;100.00
67931;BME280;63902;52.000;5.954;2023-03-23T08:54:35;99897.88;;;10.81;100.00
67931;BME280;63902;52.000;5.954;2023-03-23T08:55:37;99898.13;;;10.77;100.00
67931;BME280;63902;52.000;5.954;2023-03-23T08:56:38;99898.03;;;10.78;100.00
67931;BME280;63902;52.000;5.954;2023-03-23T08:57:38;99906.69;;;10.82;100.00
67931;BME280;63902;52.000;5.954;2023-03-23T08:58:39;99899.84;;;10.78;100.00
67931;BME280;63902;52.000;5.954;2023-03-23T08:59:40;99903.94;;;10.83;100.00
67931;BME280;63902;52.000;5.954;2023-03-23T09:00:40;99902.91;;;10.86;100.00
67931;BME280;63902;52.000;5.954;2023-03-23T09:01:41;99914.38;;;10.86;100.00
67931;BME280;63902;52.000;5.954;2023-03-23T09:02:41;99912.84;;;10.82;100.00
67931;BME280;63902;52.000;5.954;2023-03-23T09:03:42;99919.00;;;10.83;100.00
67931;BME280;63902;52.000;5.954;2023-03-23T09:04:43;99915.50;;;10.82;100.00
67931;BME280;63902;52.000;5.954;2023-03-23T09:05:43;99908.56;;;10.80;100.00
67931;BME280;63902;52.000;5.954;2023-03-23T09:06:45;99916.28;;;10.84;100.00
67931;BME280;63902;52.000;5.954;2023-03-23T09:07:47;99903.50;;;10.75;100.00
67931;BME280;63902;52.000;5.954;2023-03-23T09:08:48;99921.59;;;10.84;99.92
67931;BME280;63902;52.000;5.954;2023-03-23T09:09:49;99905.66;;;10.84;100.00
67931;BME280;63902;52.000;5.954;2023-03-23T09:10:51;99902.41;;;10.79;100.00
67931;BME280;63902;52.000;5.954;2023-03-23T09:11:53;99923.03;;;10.90;100.00
67931;BME280;63902;52.000;5.954;2023-03-23T09:12:54;99927.38;;;10.91;100.00
67931;BME280;63902;52.000;5.954;2023-03-23T09:13:55;99900.38;;;10.84;100.00
67931;BME280;63902;52.000;5.954;2023-03-23T09:14:55;99929.09;;;10.92;99.40
67931;BME280;63902;52.000;5.954;2023-03-23T09:15:56;99922.09;;;10.91;99.80
67931;BME280;63902;52.000;5.954;2023-03-23T09:16:56;99922.16;;;10.89;99.27
67931;BME280;63902;52.000;5.954;2023-03-23T09:17:57;99915.06;;;10.90;99.98
67931;BME280;63902;52.000;5.954;2023-03-23T09:18:58;99903.50;;;10.91;100.00
67931;BME280;63902;52.000;5.954;2023-03-23T09:19:58;99912.13;;;10.94;100.00
67931;BME280;63902;52.000;5.954;2023-03-23T09:20:59;99913.88;;;10.95;100.00
67931;BME280;63902;52.000;5.954;2023-03-23T09:22:00;99920.53;;;11.03;99.76
67931;BME280;63902;52.000;5.954;2023-03-23T09:23:01;99917.88;;;11.03;99.77
67931;BME280;63902;52.000;5.954;2023-03-23T09:24:01;99898.44;;;11.02;97.02
67931;BME280;63902;52.000;5.954;2023-03-23T09:25:02;99907.31;;;11.17;97.06
67931;BME280;63902;52.000;5.954;2023-03-23T09:26:04;99907.41;;;11.15;97.93
67931;BME280;63902;52.000;5.954;2023-03-23T09:27:05;99925.44;;;11.25;97.77
67931;BME280;63902;52.000;5.954;2023-03-23T09:28:05;99915.69;;;11.25;96.09
67931;BME280;63902;52.000;5.954;2023-03-23T09:29:06;99917.22;;;11.29;96.93
67931;BME280;63902;52.000;5.954;2023-03-23T09:30:09;99928.69;;;11.30;95.68
67931;BME280;63902;52.000;5.954;2023-03-23T09:31:10;99917.75;;;11.20;96.35
67931;BME280;63902;52.000;5.954;2023-03-23T09:32:10;99931.72;;;11.24;96.42
67931;BME280;63902;52.000;5.954;2023-03-23T09:33:11;99919.38;;;11.23;97.22
67931;BME280;63902;52.000;5.954;2023-03-23T09:34:12;99928.28;;;11.22;94.85
67931;BME280;63902;52.000;5.954;2023-03-23T09:35:12;99934.44;;;11.22;96.20
67931;BME280;63902;52.000;5.954;2023-03-23T09:36:13;99921.34;;;11.19;97.22
67931;BME280;63902;52.000;5.954;2023-03-23T09:37:13;99932.38;;;11.27;96.37
67931;BME280;63902;52.000;5.954;2023-03-23T09:38:17;99932.13;;;11.32;96.14
67931;BME280;63902;52.000;5.954;2023-03-23T09:39:17;99936.63;;;11.46;95.90
67931;BME280;63902;52.000;5.954;2023-03-23T09:40:20;99937.38;;;11.48;95.04
67931;BME280;63902;52.000;5.954;2023-03-23T09:41:47;99937.91;;;11.69;94.50
67931;BME280;63902;52.000;5.954;2023-03-23T09:42:57;99935.91;;;11.72;93.69
67931;BME280;63902;52.000;5.954;2023-03-23T09:44:07;99936.88;;;11.71;94.52
67931;BME280;63902;52.000;5.954;2023-03-23T09:45:17;99938.31;;;11.77;95.16
67931;BME280;63902;52.000;5.954;2023-03-23T09:46:30;99942.78;;;11.76;94.98
67931;BME280;63902;52.000;5.954;2023-03-23T09:47:37;99928.41;;;11.64;94.43
67931;BME280;63902;52.000;5.954;2023-03-23T09:48:46;99911.88;;;11.59;95.49
67931;BME280;63902;52.000;5.954;2023-03-23T09:49:52;99922.81;;;11.69;94.95
67931;BME280;63902;52.000;5.954;2023-03-23T09:51:00;99933.00;;;11.77;93.99
67931;BME280;63902;52.000;5.954;2023-03-23T09:52:07;99931.50;;;11.87;91.83
67931;BME280;63902;52.000;5.954;2023-03-23T09:53:12;99940.16;;;11.91;91.11
67931;BME280;63902;52.000;5.954;2023-03-23T09:54:19;99938.06;;;11.96;91.83
67931;BME280;63902;52.000;5.954;2023-03-23T09:55:22;99934.09;;;12.03;91.53
67931;BME280;63902;52.000;5.954;2023-03-23T09:56:23;99940.25;;;12.18;90.50
67931;BME280;63902;52.000;5.954;2023-03-23T09:57:29;99934.66;;;12.22;89.80
67931;BME280;63902;52.000;5.954;2023-03-23T09:58:36;99941.09;;;12.18;89.97
67931;BME280;63902;52.000;5.954;2023-03-23T09:59:41;99945.31;;;12.22;89.21
67931;BME280;63902;52.000;5.954;2023-03-23T10:00:47;99928.88;;;12.16;90.61
67931;BME280;63902;52.000;5.954;2023-03-23T10:01:51;99942.25;;;12.28;88.23
67931;BME280;63902;52.000;5.954;2023-03-23T10:02:56;99957.94;;;12.19;85.51
67931;BME280;63902;52.000;5.954;2023-03-23T10:04:03;99960.84;;;12.00;89.92
67931;BME280;63902;52.000;5.954;2023-03-23T10:05:20;99948.53;;;11.99;90.18
67931;BME280;63902;52.000;5.954;2023-03-23T10:06:23;99956.78;;;11.94;89.22
67931;BME280;63902;52.000;5.954;2023-03-23T10:07:25;99957.22;;;11.86;90.41
67931;BME280;63902;52.000;5.954;2023-03-23T10:08:30;99956.63;;;11.81;88.67
67931;BME280;63902;52.000;5.954;2023-03-23T10:09:32;99953.97;;;11.81;91.94
67931;BME280;63902;52.000;5.954;2023-03-23T10:10:42;99951.00;;;12.02;91.48
67931;BME280;63902;52.000;5.954;2023-03-23T10:11:52;99958.41;;;12.25;89.21
67931;BME280;63902;52.000;5.954;2023-03-23T10:12:59;99946.53;;;12.45;89.76
67931;BME280;63902;52.000;5.954;2023-03-23T10:14:14;99952.19;;;12.68;86.09
67931;BME280;63902;52.000;5.954;2023-03-23T10:15:17;99939.75;;;12.54;87.06
67931;BME280;63902;52.000;5.954;2023-03-23T10:16:22;99959.53;;;12.64;88.97
67931;BME280;63902;52.000;5.954;2023-03-23T10:17:27;99948.03;;;12.64;89.61
67931;BME280;63902;52.000;5.954;2023-03-23T10:18:35;99958.28;;;12.70;87.31
67931;BME280;63902;52.000;5.954;2023-03-23T10:19:46;99958.38;;;12.54;84.39
67931;BME280;63902;52.000;5.954;2023-03-23T10:20:50;99963.06;;;12.36;86.99
67931;BME280;63902;52.000;5.954;2023-03-23T10:21:56;99943.59;;;12.36;84.64
67931;BME280;63902;52.000;5.954;2023-03-23T10:23:10;99956.97;;;12.48;85.12
67931;BME280;63902;52.000;5.954;2023-03-23T10:24:15;99964.44;;;12.70;83.44
67931;BME280;63902;52.000;5.954;2023-03-23T10:25:19;99964.00;;;12.64;86.34
67931;BME280;63902;52.000;5.954;2023-03-23T10:26:30;99939.38;;;12.46;86.19
67931;BME280;63902;52.000;5.954;2023-03-23T10:27:36;99947.38;;;12.46;87.47
67931;BME280;63902;52.000;5.954;2023-03-23T10:28:41;99952.22;;;12.53;82.74
67931;BME280;63902;52.000;5.954;2023-03-23T10:29:46;99955.00;;;12.52;83.02
67931;BME280;63902;52.000;5.954;2023-03-23T10:30:51;99956.41;;;12.43;84.35
67931;BME280;63902;52.000;5.954;2023-03-23T10:31:56;99963.91;;;12.51;85.10
67931;BME280;63902;52.000;5.954;2023-03-23T10:33:02;99952.22;;;12.39;84.25
67931;BME280;63902;52.000;5.954;2023-03-23T10:34:07;99961.25;;;12.51;83.13
67931;BME280;63902;52.000;5.954;2023-03-23T10:35:14;99957.28;;;12.44;82.24
67931;BME280;63902;52.000;5.954;2023-03-23T10:36:19;99962.78;;;12.41;84.37
67931;BME280;63902;52.000;5.954;2023-03-23T10:37:25;99946.72;;;12.42;86.12
67931;BME280;63902;52.000;5.954;2023-03-23T10:38:31;99941.84;;;12.49;84.83
67931;BME280;63902;52.000;5.954;2023-03-23T10:39:40;99968.28;;;12.66;83.64
67931;BME280;63902;52.000;5.954;2023-03-23T10:40:47;99974.81;;;12.75;79.98
67931;BME280;63902;52.000;5.954;2023-03-23T10:41:48;99966.72;;;12.76;83.52
67931;BME280;63902;52.000;5.954;2023-03-23T10:42:49;99964.22;;;12.88;83.69
67931;BME280;63902;52.000;5.954;2023-03-23T10:43:51;99979.66;;;13.10;83.83
67931;BME280;63902;52.000;5.954;2023-03-23T10:44:52;99963.03;;;13.06;84.19
67931;BME280;63902;52.000;5.954;2023-03-23T10:45:56;99974.75;;;13.04;83.20
67931;BME280;63902;52.000;5.954;2023-03-23T10:47:00;99963.47;;;13.13;79.79
67931;BME280;63902;52.000;5.954;2023-03-23T10:48:07;99967.97;;;13.12;78.23
67931;BME280;63902;52.000;5.954;2023-03-23T10:49:11;99973.56;;;13.22;81.04
67931;BME280;63902;52.000;5.954;2023-03-23T10:50:15;99970.53;;;13.14;80.51
67931;BME280;63902;52.000;5.954;2023-03-23T10:51:19;99971.59;;;13.11;79.54
67931;BME280;63902;52.000;5.954;2023-03-23T10:52:28;99968.78;;;13.00;82.79
67931;BME280;63902;52.000;5.954;2023-03-23T10:53:32;99960.94;;;13.11;83.22
67931;BME280;63902;52.000;5.954;2023-03-23T10:54:37;99964.22;;;13.29;82.86
67931;BME280;63902;52.000;5.954;2023-03-23T10:55:40;99967.44;;;13.34;81.29
67931;BME280;63902;52.000;5.954;2023-03-23T10:56:42;99973.75;;;13.46;81.43
67931;BME280;63902;52.000;5.954;2023-03-23T10:57:45;99984.91;;;13.38;81.36
67931;BME280;63902;52.000;5.954;2023-03-23T10:58:46;99957.03;;;13.17;80.66
67931;BME280;63902;52.000;5.954;2023-03-23T10:59:48;99975.13;;;13.39;82.52
67931;BME280;63902;52.000;5.954;2023-03-23T11:00:49;99980.56;;;13.37;79.87
67931;BME280;63902;52.000;5.954;2023-03-23T11:01:52;99979.34;;;13.29;77.40